createdAt,value
2019-04-07T00:00:22.193Z,987.58
2019-04-07T00:01:21.695Z,987.54
2019-04-07T00:02:22.377Z,987.54
2019-04-07T00:03:21.674Z,987.53
2019-04-07T00:04:21.664Z,987.54
2019-04-07T00:05:21.788Z,987.54
2019-04-07T00:06:21.644Z,987.51
2019-04-07T00:07:21.635Z,987.55
2019-04-07T00:08:21.717Z,987.55
2019-04-07T00:09:22.260Z,987.53
2019-04-07T00:10:21.618Z,987.55
2019-04-07T00:11:21.593Z,987.54
2019-04-07T00:12:21.583Z,987.52
2019-04-07T00:13:21.573Z,987.51
2019-04-07T00:14:21.563Z,987.50
2019-04-07T00:15:21.974Z,987.54
2019-04-07T00:16:21.587Z,987.52
2019-04-07T00:17:21.533Z,987.53
2019-04-07T00:18:21.757Z,987.55
2019-04-07T00:19:21.940Z,987.50
2019-04-07T00:20:22.052Z,987.49
2019-04-07T00:21:22.031Z,987.50
2019-04-07T00:22:21.482Z,987.51
2019-04-07T00:23:21.471Z,987.52
2019-04-07T00:24:21.882Z,987.51
2019-04-07T00:25:21.452Z,987.49
2019-04-07T00:26:21.590Z,987.51
2019-04-07T00:27:21.431Z,987.51
2019-04-07T00:28:21.470Z,987.51
2019-04-07T00:29:21.568Z,987.51
2019-04-07T00:30:21.400Z,987.49
2019-04-07T00:31:21.629Z,987.47
2019-04-07T00:32:21.380Z,987.43
2019-04-07T00:33:21.975Z,987.46
2019-04-07T00:34:22.092Z,987.46
2019-04-07T00:35:28.114Z,987.47
2019-04-07T00:36:21.918Z,987.44
2019-04-07T00:37:21.870Z,987.46
2019-04-07T00:38:21.320Z,987.48
2019-04-07T00:39:21.309Z,987.47
2019-04-07T00:40:22.294Z,987.50
2019-04-07T00:41:21.288Z,987.48
2019-04-07T00:42:21.279Z,987.52
2019-04-07T00:43:21.268Z,987.51
2019-04-07T00:44:21.267Z,987.52
2019-04-07T00:45:21.551Z,987.53
2019-04-07T00:46:21.801Z,987.56
2019-04-07T00:47:21.879Z,987.57
2019-04-07T00:48:21.224Z,987.57
2019-04-07T00:49:21.207Z,987.54
2019-04-07T00:50:21.967Z,987.56
2019-04-07T00:51:21.200Z,987.56
2019-04-07T00:52:21.502Z,987.55
2019-04-07T00:53:21.169Z,987.57
2019-04-07T00:54:21.491Z,987.57
2019-04-07T00:55:21.144Z,987.54
2019-04-07T00:56:21.134Z,987.59
2019-04-07T00:57:21.128Z,987.55
2019-04-07T00:58:21.456Z,987.54
2019-04-07T00:59:21.102Z,987.52
2019-04-07T01:00:21.848Z,987.56
2019-04-07T01:01:21.700Z,987.54
2019-04-07T01:02:21.235Z,987.52
2019-04-07T01:03:21.095Z,987.49
2019-04-07T01:04:21.142Z,987.51
2019-04-07T01:05:33.711Z,987.50
2019-04-07T01:06:21.030Z,987.50
2019-04-07T01:07:21.022Z,987.50
2019-04-07T01:08:21.541Z,987.49
2019-04-07T01:09:20.998Z,987.50
2019-04-07T01:10:21.606Z,987.47
2019-04-07T01:11:21.590Z,987.46
2019-04-07T01:12:21.391Z,987.46
2019-04-07T01:13:20.955Z,987.46
2019-04-07T01:14:21.420Z,987.45
2019-04-07T01:15:20.936Z,987.49
2019-04-07T01:16:20.924Z,987.48
2019-04-07T01:17:21.563Z,987.46
2019-04-07T01:18:20.904Z,987.44
2019-04-07T01:19:21.136Z,987.44
2019-04-07T01:20:20.883Z,987.47
2019-04-07T01:21:20.873Z,987.44
2019-04-07T01:22:20.868Z,987.43
2019-04-07T01:23:20.968Z,987.46
2019-04-07T01:24:21.044Z,987.47
2019-04-07T01:25:21.445Z,987.43
2019-04-07T01:26:20.821Z,987.43
2019-04-07T01:27:20.864Z,987.45
2019-04-07T01:28:20.888Z,987.42
2019-04-07T01:29:20.986Z,987.42
2019-04-07T01:30:21.369Z,987.44
2019-04-07T01:31:20.932Z,987.47
2019-04-07T01:32:21.279Z,987.43
2019-04-07T01:33:20.779Z,987.48
2019-04-07T01:34:20.749Z,987.46
2019-04-07T01:35:21.331Z,987.48
2019-04-07T01:36:20.715Z,987.45
2019-04-07T01:37:20.967Z,987.46
2019-04-07T01:38:21.235Z,987.47
2019-04-07T01:39:20.687Z,987.43
2019-04-07T01:40:21.053Z,987.45
2019-04-07T01:41:20.663Z,987.45
2019-04-07T01:42:21.319Z,987.45
2019-04-07T01:43:20.643Z,987.42
2019-04-07T01:44:20.632Z,987.43
2019-04-07T01:45:20.661Z,987.45
2019-04-07T01:46:20.679Z,987.41
2019-04-07T01:47:21.045Z,987.43
2019-04-07T01:48:20.589Z,987.41
2019-04-07T01:49:20.663Z,987.48
2019-04-07T01:50:21.102Z,987.45
2019-04-07T01:51:21.119Z,987.46
2019-04-07T01:52:21.163Z,987.48
2019-04-07T01:53:21.255Z,987.51
2019-04-07T01:54:20.778Z,987.56
2019-04-07T01:55:20.515Z,987.54
2019-04-07T01:56:20.794Z,987.54
2019-04-07T01:57:20.956Z,987.49
2019-04-07T01:58:20.483Z,987.50
2019-04-07T01:59:20.918Z,987.43
2019-04-07T02:00:20.468Z,987.40
2019-04-07T02:01:20.866Z,987.42
2019-04-07T02:02:20.452Z,987.38
2019-04-07T02:03:20.436Z,987.38
2019-04-07T02:04:20.478Z,987.38
2019-04-07T02:05:20.898Z,987.33
2019-04-07T02:06:21.039Z,987.37
2019-04-07T02:07:20.387Z,987.32
2019-04-07T02:08:20.941Z,987.34
2019-04-07T02:09:20.363Z,987.34
2019-04-07T02:10:20.913Z,987.34
2019-04-07T02:11:21.129Z,987.36
2019-04-07T02:12:20.329Z,987.38
2019-04-07T02:13:20.732Z,987.37
2019-04-07T02:14:20.308Z,987.39
2019-04-07T02:15:20.296Z,987.39
2019-04-07T02:16:20.421Z,987.40
2019-04-07T02:17:20.852Z,987.41
2019-04-07T02:18:20.264Z,987.36
2019-04-07T02:19:20.475Z,987.36
2019-04-07T02:20:20.760Z,987.39
2019-04-07T02:21:20.717Z,987.33
2019-04-07T02:22:20.219Z,987.35
2019-04-07T02:23:20.729Z,987.36
2019-04-07T02:24:20.340Z,987.32
2019-04-07T02:25:20.740Z,987.37
2019-04-07T02:26:20.180Z,987.31
2019-04-07T02:27:20.560Z,987.29
2019-04-07T02:28:20.394Z,987.33
2019-04-07T02:29:20.397Z,987.33
2019-04-07T02:30:20.132Z,987.29
2019-04-07T02:31:21.121Z,987.31
2019-04-07T02:32:20.107Z,987.33
2019-04-07T02:33:20.098Z,987.32
2019-04-07T02:34:20.901Z,987.31
2019-04-07T02:35:20.888Z,987.33
2019-04-07T02:36:25.904Z,987.37
2019-04-07T02:37:20.600Z,987.36
2019-04-07T02:38:20.999Z,987.35
2019-04-07T02:39:20.033Z,987.38
2019-04-07T02:40:20.019Z,987.40
2019-04-07T02:41:20.010Z,987.36
2019-04-07T02:42:20.274Z,987.37
2019-04-07T02:43:19.987Z,987.39
2019-04-07T02:44:19.995Z,987.37
2019-04-07T02:45:19.964Z,987.40
2019-04-07T02:46:20.372Z,987.38
2019-04-07T02:47:20.039Z,987.41
2019-04-07T02:48:20.055Z,987.42
2019-04-07T02:49:20.038Z,987.43
2019-04-07T02:50:19.915Z,987.38
2019-04-07T02:51:20.192Z,987.38
2019-04-07T02:52:19.897Z,987.38
2019-04-07T02:53:19.877Z,987.37
2019-04-07T02:54:20.663Z,987.38
2019-04-07T02:55:19.855Z,987.38
2019-04-07T02:56:20.816Z,987.38
2019-04-07T02:57:20.643Z,987.34
2019-04-07T02:58:20.065Z,987.43
2019-04-07T02:59:19.920Z,987.41
2019-04-07T03:00:20.455Z,987.41
2019-04-07T03:01:20.125Z,987.44
2019-04-07T03:02:20.744Z,987.40
2019-04-07T03:03:20.108Z,987.48
2019-04-07T03:04:20.533Z,987.46
2019-04-07T03:05:19.886Z,987.48
2019-04-07T03:06:34.873Z,987.45
2019-04-07T03:07:20.055Z,987.47
2019-04-07T03:08:19.721Z,987.41
2019-04-07T03:09:20.479Z,987.39
2019-04-07T03:10:19.693Z,987.38
2019-04-07T03:11:20.018Z,987.37
2019-04-07T03:12:19.670Z,987.35
2019-04-07T03:13:19.658Z,987.38
2019-04-07T03:14:19.838Z,987.38
2019-04-07T03:15:19.636Z,987.41
2019-04-07T03:16:19.694Z,987.42
2019-04-07T03:17:20.145Z,987.42
2019-04-07T03:18:20.152Z,987.40
2019-04-07T03:19:19.594Z,987.43
2019-04-07T03:20:19.583Z,987.41
2019-04-07T03:21:19.826Z,987.41
2019-04-07T03:22:20.603Z,987.40
2019-04-07T03:23:20.411Z,987.39
2019-04-07T03:24:19.562Z,987.40
2019-04-07T03:25:20.587Z,987.37
2019-04-07T03:26:20.421Z,987.38
2019-04-07T03:27:19.506Z,987.37
2019-04-07T03:28:19.796Z,987.37
2019-04-07T03:29:20.254Z,987.41
2019-04-07T03:30:20.795Z,987.41
2019-04-07T03:31:21.835Z,987.44
2019-04-07T03:32:23.380Z,987.40
2019-04-07T03:33:22.773Z,987.42
2019-04-07T03:34:20.790Z,987.40
2019-04-07T03:35:22.804Z,987.41
2019-04-07T03:36:21.565Z,987.38
2019-04-07T03:37:33.128Z,987.37
2019-04-07T03:38:20.427Z,987.40
2019-04-07T03:39:20.347Z,987.43
2019-04-07T03:40:20.010Z,987.45
2019-04-07T03:41:19.652Z,987.46
2019-04-07T03:42:19.343Z,987.51
2019-04-07T03:43:19.703Z,987.50
2019-04-07T03:44:19.321Z,987.56
2019-04-07T03:45:20.319Z,987.57
2019-04-07T03:46:19.301Z,987.55
2019-04-07T03:47:20.111Z,987.51
2019-04-07T03:48:19.294Z,987.51
2019-04-07T03:49:20.052Z,987.51
2019-04-07T03:50:19.305Z,987.52
2019-04-07T03:51:20.163Z,987.49
2019-04-07T03:52:19.584Z,987.44
2019-04-07T03:53:20.108Z,987.44
2019-04-07T03:54:19.213Z,987.44
2019-04-07T03:55:20.377Z,987.41
2019-04-07T03:56:20.120Z,987.44
2019-04-07T03:57:19.670Z,987.45
2019-04-07T03:58:19.564Z,987.46
2019-04-07T03:59:20.033Z,987.44
2019-04-07T04:00:19.143Z,987.42
2019-04-07T04:01:19.133Z,987.47
2019-04-07T04:02:19.675Z,987.45
2019-04-07T04:03:19.368Z,987.49
2019-04-07T04:04:19.132Z,987.46
2019-04-07T04:05:19.103Z,987.47
2019-04-07T04:06:19.400Z,987.47
2019-04-07T04:07:29.351Z,987.48
2019-04-07T04:08:19.053Z,987.50
2019-04-07T04:09:19.042Z,987.46
2019-04-07T04:10:19.340Z,987.46
2019-04-07T04:11:19.021Z,987.45
2019-04-07T04:12:19.010Z,987.44
2019-04-07T04:13:19.998Z,987.47
2019-04-07T04:14:18.986Z,987.47
2019-04-07T04:15:18.975Z,987.50
2019-04-07T04:16:19.949Z,987.47
2019-04-07T04:17:19.430Z,987.49
2019-04-07T04:18:18.942Z,987.44
2019-04-07T04:19:18.949Z,987.44
2019-04-07T04:20:19.734Z,987.46
2019-04-07T04:21:19.786Z,987.49
2019-04-07T04:22:18.896Z,987.40
2019-04-07T04:23:19.768Z,987.39
2019-04-07T04:24:19.879Z,987.40
2019-04-07T04:25:19.170Z,987.38
2019-04-07T04:26:18.852Z,987.40
2019-04-07T04:27:18.877Z,987.39
2019-04-07T04:28:19.371Z,987.41
2019-04-07T04:29:18.931Z,987.37
2019-04-07T04:30:19.004Z,987.37
2019-04-07T04:31:19.585Z,987.38
2019-04-07T04:32:18.967Z,987.35
2019-04-07T04:33:18.769Z,987.36
2019-04-07T04:34:19.172Z,987.36
2019-04-07T04:35:18.998Z,987.40
2019-04-07T04:36:18.926Z,987.39
2019-04-07T04:37:34.561Z,987.38
2019-04-07T04:38:18.713Z,987.39
2019-04-07T04:39:20.935Z,987.45
2019-04-07T04:40:19.113Z,987.46
2019-04-07T04:41:18.961Z,987.50
2019-04-07T04:42:18.679Z,987.53
2019-04-07T04:43:18.666Z,987.55
2019-04-07T04:44:18.786Z,987.60
2019-04-07T04:45:18.638Z,987.61
2019-04-07T04:46:18.726Z,987.62
2019-04-07T04:47:19.105Z,987.63
2019-04-07T04:48:19.653Z,987.61
2019-04-07T04:49:19.021Z,987.59
2019-04-07T04:50:18.584Z,987.61
2019-04-07T04:51:18.566Z,987.57
2019-04-07T04:52:18.581Z,987.62
2019-04-07T04:53:18.616Z,987.65
2019-04-07T04:54:19.303Z,987.64
2019-04-07T04:55:18.901Z,987.65
2019-04-07T04:56:18.698Z,987.71
2019-04-07T04:57:18.495Z,987.72
2019-04-07T04:58:19.311Z,987.74
2019-04-07T04:59:18.472Z,987.76
2019-04-07T05:00:18.764Z,987.76
2019-04-07T05:01:18.724Z,987.76
2019-04-07T05:02:18.960Z,987.76
2019-04-07T05:03:19.391Z,987.76
2019-04-07T05:04:18.422Z,987.76
2019-04-07T05:05:18.403Z,987.78
2019-04-07T05:06:18.392Z,987.80
2019-04-07T05:07:19.019Z,987.86
2019-04-07T05:08:18.382Z,987.87
2019-04-07T05:09:18.357Z,987.87
2019-04-07T05:10:19.249Z,987.89
2019-04-07T05:11:18.875Z,987.87
2019-04-07T05:12:18.337Z,987.90
2019-04-07T05:13:18.312Z,987.91
2019-04-07T05:14:18.301Z,987.92
2019-04-07T05:15:18.288Z,987.94
2019-04-07T05:16:18.500Z,987.95
2019-04-07T05:17:18.269Z,987.95
2019-04-07T05:18:18.256Z,987.94
2019-04-07T05:19:18.257Z,987.99
2019-04-07T05:20:18.358Z,988.00
2019-04-07T05:21:18.579Z,987.97
2019-04-07T05:22:18.212Z,987.99
2019-04-07T05:23:18.224Z,988.00
2019-04-07T05:24:18.189Z,988.02
2019-04-07T05:25:18.446Z,987.97
2019-04-07T05:26:18.167Z,988.00
2019-04-07T05:27:18.619Z,987.99
2019-04-07T05:28:18.144Z,988.00
2019-04-07T05:29:18.675Z,988.08
2019-04-07T05:30:18.121Z,988.02
2019-04-07T05:31:18.720Z,988.02
2019-04-07T05:32:18.099Z,988.05
2019-04-07T05:33:18.089Z,988.10
2019-04-07T05:34:20.507Z,988.09
2019-04-07T05:35:18.738Z,988.09
2019-04-07T05:36:18.054Z,988.14
2019-04-07T05:37:18.769Z,988.08
2019-04-07T05:38:18.031Z,988.10
2019-04-07T05:39:18.022Z,988.10
2019-04-07T05:40:18.010Z,988.11
2019-04-07T05:41:18.365Z,988.08
2019-04-07T05:42:17.987Z,988.12
2019-04-07T05:43:18.488Z,988.10
2019-04-07T05:44:17.964Z,988.13
2019-04-07T05:45:17.953Z,988.14
2019-04-07T05:46:17.943Z,988.13
2019-04-07T05:47:17.933Z,988.14
2019-04-07T05:48:20.229Z,988.11
2019-04-07T05:49:18.752Z,988.17
2019-04-07T05:50:17.898Z,988.16
2019-04-07T05:51:17.890Z,988.17
2019-04-07T05:52:18.116Z,988.17
2019-04-07T05:53:17.866Z,988.16
2019-04-07T05:54:19.760Z,988.18
2019-04-07T05:55:20.605Z,988.15
2019-04-07T05:56:17.832Z,988.16
2019-04-07T05:57:18.556Z,988.17
2019-04-07T05:58:18.037Z,988.22
2019-04-07T05:59:17.802Z,988.23
2019-04-07T06:00:18.709Z,988.23
2019-04-07T06:01:21.712Z,988.23
2019-04-07T06:02:17.902Z,988.27
2019-04-07T06:03:17.788Z,988.29
2019-04-07T06:04:19.177Z,988.27
2019-04-07T06:05:18.612Z,988.30
2019-04-07T06:06:19.148Z,988.29
2019-04-07T06:07:17.713Z,988.28
2019-04-07T06:08:26.864Z,988.29
2019-04-07T06:09:18.918Z,988.27
2019-04-07T06:10:18.329Z,988.30
2019-04-07T06:11:17.669Z,988.25
2019-04-07T06:12:17.659Z,988.26
2019-04-07T06:13:17.685Z,988.29
2019-04-07T06:14:17.638Z,988.28
2019-04-07T06:15:21.604Z,988.30
2019-04-07T06:16:19.953Z,988.31
2019-04-07T06:17:17.622Z,988.27
2019-04-07T06:18:17.595Z,988.28
2019-04-07T06:19:18.227Z,988.25
2019-04-07T06:20:18.042Z,988.27
2019-04-07T06:21:17.565Z,988.26
2019-04-07T06:22:19.830Z,988.26
2019-04-07T06:23:17.767Z,988.32
2019-04-07T06:24:18.379Z,988.31
2019-04-07T06:25:17.523Z,988.31
2019-04-07T06:26:17.633Z,988.28
2019-04-07T06:27:18.122Z,988.30
2019-04-07T06:28:19.121Z,988.29
2019-04-07T06:29:18.247Z,988.27
2019-04-07T06:30:17.610Z,988.26
2019-04-07T06:31:17.463Z,988.24
2019-04-07T06:32:17.772Z,988.22
2019-04-07T06:33:17.539Z,988.23
2019-04-07T06:34:17.432Z,988.23
2019-04-07T06:35:18.174Z,988.22
2019-04-07T06:36:18.760Z,988.25
2019-04-07T06:37:17.795Z,988.22
2019-04-07T06:38:17.723Z,988.24
2019-04-07T06:39:19.237Z,988.24
2019-04-07T06:40:20.315Z,988.24
2019-04-07T06:41:17.446Z,988.23
2019-04-07T06:42:17.600Z,988.20
2019-04-07T06:43:18.633Z,988.22
2019-04-07T06:44:21.118Z,988.22
2019-04-07T06:45:20.575Z,988.22
2019-04-07T06:46:17.504Z,988.17
2019-04-07T06:47:17.970Z,988.20
2019-04-07T06:48:17.554Z,988.15
2019-04-07T06:49:17.291Z,988.17
2019-04-07T06:50:17.932Z,988.20
2019-04-07T06:51:17.392Z,988.12
2019-04-07T06:52:17.278Z,988.14
2019-04-07T06:53:19.952Z,988.13
2019-04-07T06:54:21.025Z,988.18
2019-04-07T06:55:17.895Z,988.19
2019-04-07T06:56:17.558Z,988.23
2019-04-07T06:57:17.436Z,988.23
2019-04-07T06:58:17.541Z,988.26
2019-04-07T06:59:17.679Z,988.23
2019-04-07T07:00:21.515Z,988.25
2019-04-07T07:01:17.174Z,988.25
2019-04-07T07:02:17.478Z,988.25
2019-04-07T07:03:17.155Z,988.27
2019-04-07T07:04:17.872Z,988.25
2019-04-07T07:05:17.810Z,988.30
2019-04-07T07:06:18.390Z,988.24
2019-04-07T07:07:18.947Z,988.24
2019-04-07T07:08:21.611Z,988.27
2019-04-07T07:09:17.103Z,988.20
2019-04-07T07:10:26.134Z,988.27
2019-04-07T07:11:27.575Z,988.27
2019-04-07T07:12:22.644Z,988.25
2019-04-07T07:13:28.398Z,988.26
2019-04-07T07:14:31.208Z,988.27
2019-04-07T07:15:17.050Z,988.27
2019-04-07T07:16:17.449Z,988.28
2019-04-07T07:17:19.507Z,988.26
2019-04-07T07:18:20.001Z,988.29
2019-04-07T07:19:17.016Z,988.27
2019-04-07T07:20:17.648Z,988.27
2019-04-07T07:21:16.999Z,988.30
2019-04-07T07:22:17.503Z,988.32
2019-04-07T07:23:17.009Z,988.31
2019-04-07T07:24:22.495Z,988.33
2019-04-07T07:25:17.063Z,988.37
2019-04-07T07:26:17.188Z,988.37
2019-04-07T07:27:17.570Z,988.36
2019-04-07T07:28:17.338Z,988.41
2019-04-07T07:29:18.038Z,988.37
2019-04-07T07:30:18.370Z,988.35
2019-04-07T07:31:18.150Z,988.36
2019-04-07T07:32:17.017Z,988.41
2019-04-07T07:33:16.914Z,988.42
2019-04-07T07:34:17.662Z,988.41
2019-04-07T07:35:16.910Z,988.42
2019-04-07T07:36:18.355Z,988.40
2019-04-07T07:37:16.900Z,988.44
2019-04-07T07:38:16.894Z,988.43
2019-04-07T07:39:17.606Z,988.43
2019-04-07T07:40:18.344Z,988.43
2019-04-07T07:41:19.193Z,988.42
2019-04-07T07:42:19.102Z,988.43
2019-04-07T07:43:17.494Z,988.46
2019-04-07T07:44:17.578Z,988.47
2019-04-07T07:45:17.494Z,988.49
2019-04-07T07:46:20.597Z,988.52
2019-04-07T07:47:17.655Z,988.54
2019-04-07T07:48:17.484Z,988.55
2019-04-07T07:49:16.873Z,988.56
2019-04-07T07:50:16.871Z,988.58
2019-04-07T07:51:16.870Z,988.62
2019-04-07T07:52:19.666Z,988.60
2019-04-07T07:53:16.933Z,988.59
2019-04-07T07:54:17.294Z,988.62
2019-04-07T07:55:17.269Z,988.62
2019-04-07T07:56:17.023Z,988.64
2019-04-07T07:57:21.021Z,988.66
2019-04-07T07:58:16.871Z,988.64
2019-04-07T07:59:17.749Z,988.67
2019-04-07T08:00:17.003Z,988.66
2019-04-07T08:01:17.750Z,988.68
2019-04-07T08:02:19.454Z,988.69
2019-04-07T08:03:18.921Z,988.72
2019-04-07T08:04:17.375Z,988.70
2019-04-07T08:05:17.153Z,988.74
2019-04-07T08:06:17.335Z,988.75
2019-04-07T08:07:16.892Z,988.76
2019-04-07T08:08:16.887Z,988.76
2019-04-07T08:09:21.441Z,988.78
2019-04-07T08:10:17.096Z,988.82
2019-04-07T08:11:17.643Z,988.81
2019-04-07T08:12:17.353Z,988.82
2019-04-07T08:13:16.942Z,988.84
2019-04-07T08:14:18.335Z,988.85
2019-04-07T08:15:17.056Z,988.85
2019-04-07T08:16:17.399Z,988.80
2019-04-07T08:17:17.288Z,988.81
2019-04-07T08:18:19.570Z,988.82
2019-04-07T08:19:16.918Z,988.84
2019-04-07T08:20:17.477Z,988.83
2019-04-07T08:21:19.099Z,988.81
2019-04-07T08:22:27.553Z,988.79
2019-04-07T08:23:16.930Z,988.79
2019-04-07T08:24:17.667Z,988.83
2019-04-07T08:25:20.385Z,988.86
2019-04-07T08:26:16.942Z,988.81
2019-04-07T08:27:16.944Z,988.84
2019-04-07T08:28:19.565Z,988.85
2019-04-07T08:29:17.008Z,988.88
2019-04-07T08:30:17.384Z,988.87
2019-04-07T08:31:20.538Z,988.86
2019-04-07T08:32:17.637Z,988.86
2019-04-07T08:33:16.963Z,988.85
2019-04-07T08:34:17.818Z,988.84
2019-04-07T08:35:17.622Z,988.87
2019-04-07T08:36:17.217Z,988.89
2019-04-07T08:37:17.873Z,988.87
2019-04-07T08:38:19.954Z,988.86
2019-04-07T08:39:23.765Z,988.90
2019-04-07T08:40:16.985Z,988.91
2019-04-07T08:41:16.998Z,988.89
2019-04-07T08:42:18.698Z,988.97
2019-04-07T08:43:20.055Z,988.96
2019-04-07T08:44:17.160Z,988.93
2019-04-07T08:45:17.889Z,988.96
2019-04-07T08:46:17.010Z,988.95
2019-04-07T08:47:21.796Z,988.92
2019-04-07T08:48:19.321Z,988.97
2019-04-07T08:49:17.035Z,988.98
2019-04-07T08:50:17.028Z,988.98
2019-04-07T08:51:17.033Z,988.96
2019-04-07T08:52:17.440Z,988.93
2019-04-07T08:53:17.046Z,988.96
2019-04-07T08:54:18.453Z,989.02
2019-04-07T08:55:20.039Z,988.99
2019-04-07T08:56:17.819Z,988.98
2019-04-07T08:57:17.065Z,988.98
2019-04-07T08:58:24.999Z,988.97
2019-04-07T08:59:17.309Z,989.01
2019-04-07T09:00:17.538Z,988.99
2019-04-07T09:01:20.301Z,989.01
2019-04-07T09:02:18.967Z,988.98
2019-04-07T09:03:17.205Z,989.00
2019-04-07T09:04:17.853Z,989.01
2019-04-07T09:05:20.250Z,988.97
2019-04-07T09:06:17.338Z,989.00
2019-04-07T09:07:17.533Z,988.98
2019-04-07T09:08:17.929Z,988.98
2019-04-07T09:09:17.136Z,988.99
2019-04-07T09:10:20.428Z,989.04
2019-04-07T09:11:19.996Z,989.01
2019-04-07T09:12:17.506Z,989.01
2019-04-07T09:13:17.474Z,988.97
2019-04-07T09:14:17.623Z,989.00
2019-04-07T09:15:17.820Z,988.97
2019-04-07T09:16:17.753Z,988.97
2019-04-07T09:17:29.319Z,988.95
2019-04-07T09:18:18.072Z,988.98
2019-04-07T09:19:17.200Z,988.99
2019-04-07T09:20:17.926Z,989.01
2019-04-07T09:21:19.948Z,989.03
2019-04-07T09:22:20.075Z,989.04
2019-04-07T09:23:17.581Z,989.04
2019-04-07T09:24:17.699Z,989.06
2019-04-07T09:25:17.241Z,989.11
2019-04-07T09:26:19.922Z,989.07
2019-04-07T09:27:20.974Z,989.03
2019-04-07T09:28:19.944Z,989.09
2019-04-07T09:29:17.302Z,989.10
2019-04-07T09:30:17.275Z,989.09
2019-04-07T09:31:17.590Z,989.09
2019-04-07T09:32:17.841Z,989.13
2019-04-07T09:33:18.073Z,989.08
2019-04-07T09:34:20.081Z,989.13
2019-04-07T09:35:17.731Z,989.12
2019-04-07T09:36:17.995Z,989.06
2019-04-07T09:37:18.488Z,989.11
2019-04-07T09:38:17.716Z,989.13
2019-04-07T09:39:17.652Z,989.09
2019-04-07T09:40:17.802Z,989.10
2019-04-07T09:41:21.665Z,989.12
2019-04-07T09:42:18.609Z,989.13
2019-04-07T09:43:18.910Z,989.13
2019-04-07T09:44:17.408Z,989.15
2019-04-07T09:45:17.459Z,989.17
2019-04-07T09:46:18.003Z,989.16
2019-04-07T09:47:17.904Z,989.18
2019-04-07T09:48:19.878Z,989.15
2019-04-07T09:49:17.399Z,989.19
2019-04-07T09:50:17.477Z,989.20
2019-04-07T09:51:17.687Z,989.21
2019-04-07T09:52:17.855Z,989.23
2019-04-07T09:53:18.895Z,989.20
2019-04-07T09:54:20.648Z,989.19
2019-04-07T09:55:17.854Z,989.17
2019-04-07T09:56:17.448Z,989.22
2019-04-07T09:57:17.989Z,989.21
2019-04-07T09:58:18.202Z,989.20
2019-04-07T09:59:19.249Z,989.22
2019-04-07T10:00:17.479Z,989.19
2019-04-07T10:01:20.017Z,989.21
2019-04-07T10:02:17.494Z,989.24
2019-04-07T10:03:18.122Z,989.24
2019-04-07T10:04:17.510Z,989.21
2019-04-07T10:05:17.518Z,989.20
2019-04-07T10:06:17.526Z,989.24
2019-04-07T10:07:18.308Z,989.17
2019-04-07T10:08:18.937Z,989.15
2019-04-07T10:09:18.306Z,989.19
2019-04-07T10:10:17.558Z,989.20
2019-04-07T10:11:17.565Z,989.18
2019-04-07T10:12:18.437Z,989.23
2019-04-07T10:13:17.837Z,989.23
2019-04-07T10:14:18.416Z,989.18
2019-04-07T10:15:17.749Z,989.18
2019-04-07T10:16:17.605Z,989.18
2019-04-07T10:17:17.760Z,989.19
2019-04-07T10:18:17.922Z,989.14
2019-04-07T10:19:18.021Z,989.19
2019-04-07T10:20:17.962Z,989.19
2019-04-07T10:21:18.317Z,989.22
2019-04-07T10:22:17.656Z,989.20
2019-04-07T10:23:17.689Z,989.19
2019-04-07T10:24:18.490Z,989.19
2019-04-07T10:25:17.682Z,989.20
2019-04-07T10:26:17.934Z,989.20
2019-04-07T10:27:18.707Z,989.15
2019-04-07T10:28:17.781Z,989.20
2019-04-07T10:29:17.734Z,989.23
2019-04-07T10:30:17.727Z,989.24
2019-04-07T10:31:19.770Z,989.21
2019-04-07T10:32:17.900Z,989.22
2019-04-07T10:33:17.993Z,989.19
2019-04-07T10:34:18.246Z,989.22
2019-04-07T10:35:17.934Z,989.19
2019-04-07T10:36:17.780Z,989.24
2019-04-07T10:37:17.789Z,989.19
2019-04-07T10:38:17.799Z,989.23
2019-04-07T10:39:18.622Z,989.21
2019-04-07T10:40:21.824Z,989.24
2019-04-07T10:41:18.379Z,989.21
2019-04-07T10:42:18.060Z,989.20
2019-04-07T10:43:18.489Z,989.19
2019-04-07T10:44:17.925Z,989.21
2019-04-07T10:45:17.860Z,989.18
2019-04-07T10:46:17.962Z,989.18
2019-04-07T10:47:18.380Z,989.20
2019-04-07T10:48:17.991Z,989.15
2019-04-07T10:49:17.895Z,989.15
2019-04-07T10:50:17.997Z,989.18
2019-04-07T10:51:18.456Z,989.14
2019-04-07T10:52:18.021Z,989.17
2019-04-07T10:53:17.929Z,989.22
2019-04-07T10:54:17.938Z,989.15
2019-04-07T10:55:17.946Z,989.22
2019-04-07T10:56:18.741Z,989.16
2019-04-07T10:57:18.816Z,989.07
2019-04-07T10:58:18.002Z,989.19
2019-04-07T10:59:17.994Z,989.24
2019-04-07T11:00:17.988Z,989.22
2019-04-07T11:01:17.996Z,989.21
2019-04-07T11:02:18.145Z,989.19
2019-04-07T11:03:18.610Z,989.20
2019-04-07T11:04:18.020Z,989.22
2019-04-07T11:05:18.578Z,989.26
2019-04-07T11:06:18.142Z,989.21
2019-04-07T11:07:18.777Z,989.25
2019-04-07T11:08:18.250Z,989.25
2019-04-07T11:09:18.168Z,989.27
2019-04-07T11:10:29.866Z,989.28
2019-04-07T11:11:18.100Z,989.28
2019-04-07T11:12:18.082Z,989.30
2019-04-07T11:13:18.580Z,989.34
2019-04-07T11:14:18.500Z,989.30
2019-04-07T11:15:18.466Z,989.26
2019-04-07T11:16:18.566Z,989.30
2019-04-07T11:17:18.121Z,989.25
2019-04-07T11:18:19.064Z,989.30
2019-04-07T11:19:18.138Z,989.26
2019-04-07T11:20:18.145Z,989.28
2019-04-07T11:21:18.176Z,989.29
2019-04-07T11:22:18.775Z,989.29
2019-04-07T11:23:18.168Z,989.24
2019-04-07T11:24:18.748Z,989.22
2019-04-07T11:25:18.362Z,989.29
2019-04-07T11:26:18.195Z,989.36
2019-04-07T11:27:19.049Z,989.28
2019-04-07T11:28:18.207Z,989.24
2019-04-07T11:29:18.218Z,989.26
2019-04-07T11:30:18.370Z,989.23
2019-04-07T11:31:18.850Z,989.27
2019-04-07T11:32:18.236Z,989.31
2019-04-07T11:33:18.336Z,989.26
2019-04-07T11:34:18.250Z,989.21
2019-04-07T11:35:18.258Z,989.26
2019-04-07T11:36:21.278Z,989.22
2019-04-07T11:37:18.935Z,989.19
2019-04-07T11:38:19.116Z,989.24
2019-04-07T11:39:18.936Z,989.27
2019-04-07T11:40:18.292Z,989.18
2019-04-07T11:41:21.536Z,989.19
2019-04-07T11:42:18.475Z,989.22
2019-04-07T11:43:18.315Z,989.24
2019-04-07T11:44:20.180Z,989.19
2019-04-07T11:45:18.333Z,989.23
2019-04-07T11:46:18.827Z,989.20
2019-04-07T11:47:18.577Z,989.22
2019-04-07T11:48:18.350Z,989.21
2019-04-07T11:49:19.398Z,989.22
2019-04-07T11:50:18.914Z,989.23
2019-04-07T11:51:18.522Z,989.21
2019-04-07T11:52:18.379Z,989.20
2019-04-07T11:53:18.386Z,989.25
2019-04-07T11:54:18.393Z,989.32
2019-04-07T11:55:18.494Z,989.21
2019-04-07T11:56:18.407Z,989.24
2019-04-07T11:57:18.414Z,989.29
2019-04-07T11:58:25.976Z,989.26
2019-04-07T11:59:18.441Z,989.33
2019-04-07T12:00:18.469Z,989.32
2019-04-07T12:01:18.770Z,989.27
2019-04-07T12:02:19.789Z,989.27
2019-04-07T12:03:19.194Z,989.25
2019-04-07T12:04:18.578Z,989.27
2019-04-07T12:05:18.467Z,989.30
2019-04-07T12:06:19.180Z,989.28
2019-04-07T12:07:20.376Z,989.32
2019-04-07T12:08:18.550Z,989.28
2019-04-07T12:09:18.488Z,989.26
2019-04-07T12:10:18.494Z,989.32
2019-04-07T12:11:18.498Z,989.29
2019-04-07T12:12:18.504Z,989.24
2019-04-07T12:13:18.509Z,989.30
2019-04-07T12:14:19.169Z,989.30
2019-04-07T12:15:22.041Z,989.33
2019-04-07T12:16:18.591Z,989.30
2019-04-07T12:17:18.819Z,989.26
2019-04-07T12:18:19.256Z,989.32
2019-04-07T12:19:22.790Z,989.26
2019-04-07T12:20:18.548Z,989.37
2019-04-07T12:21:22.618Z,989.30
2019-04-07T12:22:18.554Z,989.32
2019-04-07T12:23:23.385Z,989.34
2019-04-07T12:24:18.947Z,989.29
2019-04-07T12:25:18.982Z,989.31
2019-04-07T12:26:18.926Z,989.25
2019-04-07T12:27:21.211Z,989.33
2019-04-07T12:28:19.445Z,989.30